Arboledas, Argentina
Current Conditions -  °F | °C
As of 6:00 PM on Saturday 22 Nov 2014 (Local Time) from SAEZ Reporting Station
Few Clouds Few Clouds  
Wind Chill: 23°   Ceiling: Unl
Heat Index: 23°   Visibility: 6mi
Dew Point: 10°   Wind: 8mph
Humidity: 44%   Direction: 290°WNW
Pressure: 29.85"   Gusts: NA
Location:  36.49°S, 61.45°W
Report Text: SAEZ 222100Z 29007KT 240V310 9999 FEW049 23/10 Q1011
Loading
Personal Weather Stations






























Interactive Weather Map New forecast layout! Learn more

10-Day Weather Forecast

Advertisements
Track Severe Weather on mobile